Time;durP1;ratioP1;P1;durP2;ratioP2;P2;SDS_P1;SDS_P2;PMS_P1;PMS_P2;Temp;Humidity;BMP_temperature;BMP_pressure;BME280_temperature;BME280_humidity;BME280_pressure;Samples;Min_cycle;Max_cycle;Signal;HPM_P1;HPM_P2
2022/05/16 00:02:00;;;;;;;42.42;33.63;;;13.80;99.90;;;;;;5053548;28;20049;-67
2022/05/16 00:04:28;;;;;;;;;;;13.80;99.90;;;;;;5051924;28;20037;-67
2022/05/16 00:06:55;;;;;;;38.50;31.95;;;13.70;99.90;;;;;;5051589;28;19917;-67
2022/05/16 00:09:22;;;;;;;41.28;34.17;;;13.70;99.90;;;;;;5051654;28;20044;-67
2022/05/16 00:11:49;;;;;;;42.53;33.05;;;13.70;99.90;;;;;;5051445;28;20048;-67
2022/05/16 00:14:16;;;;;;;36.05;32.05;;;13.60;99.90;;;;;;5051747;28;20051;-68
2022/05/16 00:16:43;;;;;;;39.45;32.28;;;13.60;99.90;;;;;;5051385;28;20051;-68
2022/05/16 00:19:10;;;;;;;43.80;32.97;;;13.50;99.90;;;;;;5053649;28;20049;-67
2022/05/16 00:21:37;;;;;;;43.42;35.90;;;13.50;99.90;;;;;;5051721;28;20041;-68
2022/05/16 00:24:04;;;;;;;44.25;35.63;;;13.50;99.90;;;;;;5053367;28;20041;-66
2022/05/16 00:26:31;;;;;;;44.75;35.03;;;13.50;99.90;;;;;;5052125;28;20040;-67
2022/05/16 00:28:58;;;;;;;39.83;33.00;;;13.50;99.90;;;;;;5052323;28;20368;-67
2022/05/16 00:31:25;;;;;;;39.83;32.78;;;13.50;99.90;;;;;;5051408;28;20128;-67
2022/05/16 00:33:52;;;;;;;38.47;31.88;;;13.40;99.90;;;;;;5053871;28;20091;-66
2022/05/16 00:36:19;;;;;;;37.03;32.08;;;13.50;99.90;;;;;;5054867;28;20488;-67
2022/05/16 00:38:46;;;;;;;37.05;31.98;;;13.40;99.90;;;;;;5056336;28;20043;-66
2022/05/16 00:41:12;;;;;;;44.90;35.50;;;13.40;99.90;;;;;;5054851;28;20041;-67
2022/05/16 00:43:55;;;;;;;38.55;31.38;;;13.40;99.90;;;;;;5054958;28;20040;-67
2022/05/16 00:46:24;;;;;;;40.78;31.65;;;13.40;99.90;;;;;;5038529;28;20095;-67
2022/05/16 00:48:50;;;;;;;43.55;35.28;;;13.40;99.90;;;;;;5055897;28;20056;-67
2022/05/16 00:51:36;;;;;;;42.65;35.13;;;13.40;99.90;;;;;;5055721;28;20041;-67
2022/05/16 00:54:10;;;;;;;42.78;35.83;;;13.30;99.90;;;;;;5039129;28;20049;-67
2022/05/16 00:56:37;;;;;;;41.53;33.88;;;13.30;99.90;;;;;;5055609;28;20041;-67
2022/05/16 00:59:04;;;;;;;44.00;33.40;;;13.30;99.90;;;;;;5054394;28;20049;-67
2022/05/16 01:07:02;;;;;;;40.67;32.83;;;13.20;99.90;;;;;;5055646;28;20045;-66
2022/05/16 01:09:30;;;;;;;40.85;32.90;;;13.20;99.90;;;;;;5056510;28;20045;-66
2022/05/16 01:11:57;;;;;;;40.15;34.10;;;13.20;99.90;;;;;;5054406;28;20045;-67
2022/05/16 01:14:46;;;;;;;41.53;33.88;;;13.10;99.90;;;;;;5054105;28;20087;-66
2022/05/16 01:17:13;;;;;;;36.03;31.87;;;13.10;99.90;;;;;;5054711;28;20488;-66
2022/05/16 01:19:40;;;;;;;40.90;33.08;;;13.00;99.90;;;;;;5037531;28;20270;-66
2022/05/16 01:22:31;;;;;;;43.35;36.58;;;13.00;99.90;;;;;;5054817;28;20128;-67
2022/05/16 01:25:00;;;;;;;41.55;33.45;;;12.90;99.90;;;;;;5055298;28;20080;-67
2022/05/16 01:27:27;;;;;;;42.13;32.88;;;12.90;99.90;;;;;;5053908;28;20047;-67
2022/05/16 01:29:53;;;;;;;35.50;30.88;;;12.90;99.90;;;;;;5054947;28;20041;-67
2022/05/16 01:32:20;;;;;;;45.30;32.05;;;12.80;99.90;;;;;;5053771;28;20465;-66
2022/05/16 01:34:48;;;;;;;35.03;31.10;;;12.80;99.90;;;;;;5056039;28;20049;-67
2022/05/16 01:37:15;;;;;;;45.00;34.88;;;12.80;99.90;;;;;;5053704;28;20048;-67
2022/05/16 01:39:42;;;;;;;32.50;28.92;;;12.70;99.90;;;;;;5054917;28;20045;-67
2022/05/16 01:42:13;;;;;;;37.78;31.70;;;12.70;99.90;;;;;;5055128;28;20055;-67
2022/05/16 01:44:40;;;;;;;37.90;33.08;;;12.70;99.90;;;;;;5054223;28;20045;-67
2022/05/16 01:47:07;;;;;;;38.13;31.02;;;12.70;99.90;;;;;;5054811;28;20048;-67
2022/05/16 01:49:34;;;;;;;33.20;29.67;;;12.60;99.90;;;;;;5037285;28;20052;-67
2022/05/16 01:52:01;;;;;;;35.17;30.95;;;12.60;99.90;;;;;;5054633;28;20487;-67
2022/05/16 01:54:30;;;;;;;33.38;29.73;;;12.60;99.90;;;;;;5055409;28;20575;-67
2022/05/16 01:56:57;;;;;;;;;;;12.50;99.90;;;;;;5055217;28;20045;-67
2022/05/16 01:59:24;;;;;;;34.33;29.48;;;12.50;99.90;;;;;;5055574;28;19924;-68
2022/05/16 02:01:50;;;;;;;34.00;28.70;;;12.50;99.90;;;;;;5054110;28;20040;-67
2022/05/16 02:04:18;;;;;;;33.42;27.77;;;12.40;99.90;;;;;;5054710;28;20052;-67
2022/05/16 02:06:45;;;;;;;33.88;27.35;;;12.40;99.90;;;;;;5053070;28;20049;-67
2022/05/16 02:09:12;;;;;;;31.83;26.17;;;12.40;99.90;;;;;;5054226;28;20041;-67
2022/05/16 02:11:39;;;;;;;30.38;26.95;;;12.40;99.90;;;;;;5053065;28;20514;-67
2022/05/16 02:14:06;;;;;;;33.17;28.77;;;12.30;99.90;;;;;;5054491;28;20067;-68
2022/05/16 02:16:32;;;;;;;26.33;23.52;;;12.30;99.90;;;;;;5054744;28;20094;-67
2022/05/16 02:18:59;;;;;;;28.92;25.75;;;12.30;99.90;;;;;;5054714;28;20059;-67
2022/05/16 02:26:58;;;;;;;32.88;27.50;;;12.30;99.90;;;;;;5054027;28;20469;-67
2022/05/16 02:29:24;;;;;;;40.80;32.22;;;12.20;99.90;;;;;;5054110;28;20460;-68
2022/05/16 02:31:51;;;;;;;39.28;32.95;;;12.30;99.90;;;;;;5053887;28;20417;-67
2022/05/16 02:34:18;;;;;;;43.38;31.90;;;12.30;99.90;;;;;;5052655;28;20045;-67
2022/05/16 02:36:45;;;;;;;37.70;33.70;;;12.30;99.90;;;;;;5054811;28;20045;-67
2022/05/16 02:39:13;;;;;;;41.55;32.90;;;12.30;99.90;;;;;;5054090;28;20046;-67
2022/05/16 02:41:40;;;;;;;36.67;32.53;;;12.30;99.90;;;;;;5052762;28;20052;-67
2022/05/16 02:44:06;;;;;;;42.33;34.40;;;12.40;99.90;;;;;;5054661;28;20037;-68
2022/05/16 02:46:33;;;;;;;40.03;30.98;;;12.30;99.90;;;;;;5052690;28;20045;-68
2022/05/16 02:49:00;;;;;;;45.45;33.67;;;12.30;99.90;;;;;;5052257;28;20470;-68
2022/05/16 02:51:27;;;;;;;38.88;32.17;;;12.30;99.90;;;;;;5052306;28;20049;-68
2022/05/16 02:53:54;;;;;;;35.45;31.30;;;12.30;99.90;;;;;;5053428;28;20040;-68
2022/05/16 02:56:21;;;;;;;37.75;31.35;;;12.30;99.90;;;;;;5053016;28;20071;-68
2022/05/16 02:58:48;;;;;;;38.20;32.88;;;12.30;99.90;;;;;;5054451;28;20064;-68
2022/05/16 03:01:15;;;;;;;34.60;29.90;;;12.30;99.90;;;;;;5052475;28;20055;-68
2022/05/16 03:03:42;;;;;;;34.13;29.92;;;12.30;99.90;;;;;;5053618;28;20048;-68
2022/05/16 03:06:09;;;;;;;32.13;28.67;;;12.30;99.90;;;;;;5053749;28;20061;-68
2022/05/16 03:08:37;;;;;;;35.85;31.00;;;12.40;99.90;;;;;;5052124;28;20041;-68
2022/05/16 03:11:04;;;;;;;37.20;31.67;;;12.40;99.90;;;;;;5053265;28;20051;-68
2022/05/16 03:13:31;;;;;;;36.00;32.20;;;12.40;99.90;;;;;;5052068;28;20476;-68
2022/05/16 03:15:59;;;;;;;50.10;35.75;;;12.40;99.90;;;;;;5053953;28;20453;-68
2022/05/16 03:18:29;;;;;;;36.00;31.35;;;12.40;99.90;;;;;;5052036;28;20052;-68
2022/05/16 03:20:57;;;;;;;44.70;33.72;;;12.50;99.90;;;;;;5053923;28;20041;-68
2022/05/16 03:23:24;;;;;;;43.22;32.67;;;12.50;99.90;;;;;;5053235;28;20052;-68
2022/05/16 03:25:51;;;;;;;43.00;33.25;;;12.50;99.90;;;;;;5053301;28;20045;-68
2022/05/16 03:28:18;;;;;;;38.28;32.95;;;12.60;99.90;;;;;;5053007;28;20040;-68
2022/05/16 03:30:45;;;;;;;40.13;32.72;;;12.60;99.90;;;;;;5052120;28;20376;-68
2022/05/16 03:33:12;;;;;;;37.53;32.17;;;12.60;99.90;;;;;;5053255;28;20037;-68
2022/05/16 03:35:39;;;;;;;36.38;32.47;;;12.60;99.90;;;;;;5035365;28;20068;-68
2022/05/16 03:38:06;;;;;;;37.78;33.78;;;12.60;99.90;;;;;;5053372;28;20048;-68
2022/05/16 03:40:42;;;;;;;34.08;29.30;;;12.60;99.90;;;;;;5052988;28;20049;-68
2022/05/16 03:43:13;;;;;;;37.22;32.13;;;12.60;99.90;;;;;;5052719;28;20178;-68
2022/05/16 03:45:40;;;;;;;32.22;28.60;;;12.60;99.90;;;;;;5051776;28;20132;-71
2022/05/16 03:48:07;;;;;;;34.90;31.20;;;12.50;99.90;;;;;;5052859;28;20064;-68
2022/05/16 03:50:35;;;;;;;38.50;34.15;;;12.50;99.90;;;;;;5052452;28;20071;-68
2022/05/16 03:53:02;;;;;;;39.38;34.38;;;12.40;99.90;;;;;;5051662;28;20052;-68
2022/05/16 03:55:29;;;;;;;34.67;30.60;;;12.40;99.90;;;;;;5051683;28;20037;-68
2022/05/16 03:57:56;;;;;;;42.53;33.65;;;12.40;99.90;;;;;;5051907;28;20345;-68
2022/05/16 04:00:23;;;;;;;39.58;32.58;;;12.40;99.90;;;;;;5052426;28;20051;-68
2022/05/16 04:02:51;;;;;;;41.33;33.30;;;12.40;99.90;;;;;;5051583;28;20052;-68
2022/05/16 04:05:19;;;;;;;36.78;31.88;;;12.40;99.90;;;;;;5051393;28;20053;-68
2022/05/16 04:07:47;;;;;;;40.88;35.35;;;12.30;99.90;;;;;;5053685;28;20037;-68
2022/05/16 04:10:14;;;;;;;34.70;30.27;;;12.30;99.90;;;;;;5038656;28;20047;-68
2022/05/16 04:12:41;;;;;;;36.95;31.75;;;12.30;99.90;;;;;;5055600;28;20047;-68
2022/05/16 04:15:09;;;;;;;37.83;32.55;;;12.30;99.90;;;;;;5055587;28;20044;-68
2022/05/16 04:17:36;;;;;;;42.83;34.05;;;12.30;99.90;;;;;;5055241;28;20060;-68
2022/05/16 04:20:04;;;;;;;40.78;34.53;;;12.30;99.90;;;;;;5057235;28;20041;-68
2022/05/16 04:22:31;;;;;;;44.08;32.65;;;12.30;99.90;;;;;;5055366;28;20049;-68
2022/05/16 04:24:58;;;;;;;35.53;31.67;;;12.30;99.90;;;;;;5057344;28;20040;-68
2022/05/16 04:27:25;;;;;;;40.80;32.47;;;12.30;99.90;;;;;;5055291;28;20041;-68
2022/05/16 04:29:51;;;;;;;36.03;30.55;;;12.30;99.90;;;;;;5056415;28;20040;-68
2022/05/16 04:32:18;;;;;;;39.95;32.40;;;12.30;99.90;;;;;;5056465;28;20067;-68
2022/05/16 04:34:45;;;;;;;43.10;34.50;;;12.30;99.90;;;;;;5056140;28;20047;-68
2022/05/16 04:37:12;;;;;;;42.47;34.92;;;12.30;99.90;;;;;;5056040;28;20037;-68
2022/05/16 04:39:39;;;;;;;38.65;34.25;;;12.40;99.90;;;;;;5055601;28;20063;-68
2022/05/16 04:44:52;;;;;;;39.72;33.10;;;12.50;99.90;;;;;;5056470;28;20456;-68
2022/05/16 04:47:18;;;;;;;36.60;32.20;;;12.50;99.90;;;;;;5056923;28;20071;-68
2022/05/16 04:49:45;;;;;;;40.95;32.78;;;12.60;99.90;;;;;;5054528;28;20123;-68
2022/05/16 04:52:12;;;;;;;43.85;35.33;;;12.60;99.90;;;;;;5056816;28;20053;-68
2022/05/16 04:54:40;;;;;;;42.22;36.25;;;12.70;99.90;;;;;;5054466;28;20071;-68
2022/05/16 04:57:07;;;;;;;41.47;34.55;;;12.90;99.90;;;;;;5055615;28;20037;-68
2022/05/16 04:59:34;;;;;;;40.72;31.50;;;13.10;99.90;;;;;;5055488;28;20048;-68
2022/05/16 05:02:01;;;;;;;36.20;29.70;;;13.20;99.90;;;;;;5055758;28;20045;-68
2022/05/16 05:04:28;;;;;;;37.80;31.77;;;13.40;99.90;;;;;;5055771;28;20041;-68
2022/05/16 05:06:54;;;;;;;32.38;28.70;;;13.50;99.90;;;;;;5055543;28;20062;-68
2022/05/16 05:09:21;;;;;;;35.40;29.80;;;13.70;99.90;;;;;;5054227;28;20052;-68
2022/05/16 05:14:34;;;;;;;33.75;28.80;;;14.00;99.90;;;;;;5055345;28;20472;-68
2022/05/16 05:17:02;;;;;;;34.38;28.25;;;13.90;99.90;;;;;;5055896;28;20514;-68
2022/05/16 05:19:29;;;;;;;33.35;28.30;;;14.00;99.90;;;;;;5054528;28;20048;-68
2022/05/16 05:21:57;;;;;;;32.05;27.92;;;13.90;99.90;;;;;;5055159;28;20104;-68
2022/05/16 05:24:24;;;;;;;31.73;28.42;;;13.90;99.90;;;;;;5038561;28;20052;-69
2022/05/16 05:26:51;;;;;;;41.63;36.83;;;13.80;99.90;;;;;;5055816;28;20041;-68
2022/05/16 05:29:19;;;;;;;118.07;102.72;;;13.80;99.90;;;;;;5054987;28;20051;-69
2022/05/16 05:31:46;;;;;;;32.80;28.52;;;14.00;99.90;;;;;;5053737;28;20461;-69
2022/05/16 05:34:13;;;;;;;30.38;27.17;;;14.10;99.90;;;;;;5054159;28;20053;-69
2022/05/16 05:36:41;;;;;;;28.38;25.45;;;14.30;99.90;;;;;;5054492;28;20049;-67
2022/05/16 05:39:08;;;;;;;34.58;30.80;;;14.40;99.90;;;;;;5054253;28;20047;-67
2022/05/16 05:41:35;;;;;;;74.07;66.18;;;14.50;99.90;;;;;;5056195;28;20041;-69
2022/05/16 05:44:02;;;;;;;31.33;28.00;;;14.70;99.90;;;;;;5054159;28;20383;-67
2022/05/16 05:46:34;;;;;;;28.48;25.48;;;14.90;99.90;;;;;;5055097;28;20070;-77
2022/05/16 05:49:02;;;;;;;51.03;45.65;;;15.00;99.90;;;;;;5054078;28;20478;-74
2022/05/16 05:51:29;;;;;;;189.70;157.63;;;14.90;99.90;;;;;;5053453;28;20052;-65
2022/05/16 05:53:55;;;;;;;51.95;46.08;;;14.90;99.90;;;;;;5055507;28;20116;-68
2022/05/16 05:56:22;;;;;;;25.85;23.02;;;14.90;99.90;;;;;;5053743;28;20041;-75
2022/05/16 05:58:49;;;;;;;24.42;17.88;;;15.00;99.90;;;;;;5053225;28;20048;-77
2022/05/16 06:01:16;;;;;;;18.58;15.05;;;14.90;99.90;;;;;;5036969;28;20090;-77
2022/05/16 06:03:43;;;;;;;18.55;15.23;;;14.90;99.90;;;;;;5055247;28;20395;-72
2022/05/16 06:06:10;;;;;;;18.40;11.55;;;14.90;99.90;;;;;;5053552;28;20080;-71
2022/05/16 06:08:37;;;;;;;440.15;362.20;;;14.90;99.90;;;;;;5054238;28;20041;-71
2022/05/16 06:11:04;;;;;;;92.88;82.85;;;15.00;99.90;;;;;;5053698;28;20045;-66
2022/05/16 06:13:31;;;;;;;40.28;33.08;;;15.10;99.90;;;;;;5053974;28;20051;-66
2022/05/16 06:15:58;;;;;;;28.85;20.40;;;15.10;99.90;;;;;;5055188;28;20048;-68
2022/05/16 06:18:25;;;;;;;21.63;14.15;;;15.10;99.90;;;;;;5053785;28;20068;-68
2022/05/16 06:20:52;;;;;;;29.05;21.83;;;15.10;99.90;;;;;;5054115;28;20499;-67
2022/05/16 06:23:19;;;;;;;20.77;14.25;;;15.10;99.90;;;;;;5052886;28;20052;-67
2022/05/16 06:25:46;;;;;;;21.75;13.70;;;15.20;99.90;;;;;;5054037;28;20048;-66
2022/05/16 06:28:16;;;;;;;23.52;13.75;;;15.20;99.90;;;;;;5052713;28;20499;-66
2022/05/16 06:30:45;;;;;;;22.88;14.60;;;15.20;99.90;;;;;;5052518;28;20124;-66
2022/05/16 06:33:12;;;;;;;22.65;13.95;;;15.30;99.90;;;;;;5052800;28;20049;-66
2022/05/16 06:35:39;;;;;;;24.88;14.65;;;15.30;99.90;;;;;;5036495;28;20045;-70
2022/05/16 06:38:14;;;;;;;20.90;13.18;;;15.40;99.90;;;;;;5052909;28;20396;-69
2022/05/16 06:40:42;;;;;;;25.90;15.20;;;15.40;99.90;;;;;;5036994;28;20048;-68
2022/05/16 06:43:09;;;;;;;23.38;14.65;;;15.30;99.90;;;;;;5052500;28;20056;-68
2022/05/16 06:45:36;;;;;;;27.23;15.25;;;15.30;99.90;;;;;;5036217;28;20087;-68
2022/05/16 06:48:04;;;;;;;24.35;14.93;;;15.30;99.90;;;;;;5052736;28;20041;-69
2022/05/16 06:50:31;;;;;;;25.38;17.30;;;15.20;99.90;;;;;;5053180;28;20053;-68
2022/05/16 06:52:58;;;;;;;26.90;16.05;;;15.20;99.90;;;;;;5053765;28;20047;-69
2022/05/16 06:55:25;;;;;;;25.40;16.75;;;15.20;99.90;;;;;;5054294;28;20048;-69
2022/05/16 06:57:52;;;;;;;28.98;17.02;;;15.20;99.90;;;;;;5053133;28;20048;-68
2022/05/16 07:00:19;;;;;;;24.48;16.02;;;15.20;99.90;;;;;;5053757;28;20041;-68
2022/05/16 07:02:46;;;;;;;24.77;15.75;;;15.20;99.90;;;;;;5052206;28;20041;-68
2022/05/16 07:05:34;;;;;;;24.80;15.52;;;15.20;99.90;;;;;;5053341;28;20053;-68
2022/05/16 07:08:00;;;;;;;22.48;15.90;;;15.20;99.90;;;;;;5052189;28;20048;-68
2022/05/16 07:10:28;;;;;;;26.83;17.00;;;15.20;99.90;;;;;;5053529;28;20044;-68
2022/05/16 07:12:55;;;;;;;25.60;18.17;;;15.30;99.90;;;;;;5052868;28;20079;-68
2022/05/16 07:15:22;;;;;;;28.85;21.67;;;15.40;99.90;;;;;;5052865;28;20049;-68
2022/05/16 07:17:49;;;;;;;23.02;16.10;;;15.60;99.90;;;;;;5053218;28;20136;-70
2022/05/16 07:20:16;;;;;;;20.88;15.88;;;15.80;99.90;;;;;;5052590;28;20346;-68
2022/05/16 07:22:51;;;;;;;21.52;16.50;;;16.00;99.90;;;;;;5054201;28;20048;-69
2022/05/16 07:25:22;;;;;;;16.73;13.15;;;16.30;99.90;;;;;;5053144;28;20045;-69
2022/05/16 07:27:59;;;;;;;17.73;11.82;;;16.60;99.90;;;;;;5053124;28;20048;-69
2022/05/16 07:30:31;;;;;;;17.05;11.73;;;16.70;99.90;;;;;;5052613;28;20040;-69
2022/05/16 07:32:58;;;;;;;14.13;10.75;;;16.80;99.90;;;;;;5052376;28;20041;-69
2022/05/16 07:35:30;;;;;;;15.15;11.00;;;16.80;99.90;;;;;;5053026;28;20048;-61
2022/05/16 07:37:58;;;;;;;15.80;9.63;;;16.90;99.90;;;;;;5051813;28;20041;-70
2022/05/16 07:40:26;;;;;;;14.63;10.30;;;17.00;99.90;;;;;;5052618;28;20045;-69
2022/05/16 07:42:54;;;;;;;12.55;8.90;;;17.00;99.90;;;;;;5054235;28;20045;-69
2022/05/16 07:45:21;;;;;;;10.02;7.65;;;17.10;99.90;;;;;;5039375;28;20541;-71
2022/05/16 07:47:48;;;;;;;15.80;9.18;;;17.10;99.90;;;;;;5057258;28;20056;-66
2022/05/16 07:50:21;;;;;;;128.45;108.45;;;17.10;99.90;;;;;;5056951;28;20498;-70
2022/05/16 07:52:48;;;;;;;22.48;19.15;;;17.10;99.90;;;;;;5057221;28;20067;-76
2022/05/16 07:55:17;;;;;;;16.70;10.57;;;17.20;99.90;;;;;;5056462;28;20071;-75
2022/05/16 07:57:44;;;;;;;12.50;7.80;;;17.30;99.90;;;;;;5056411;28;20130;-71
2022/05/16 08:00:12;;;;;;;11.55;7.95;;;17.30;99.90;;;;;;5056364;28;20053;-70
2022/05/16 08:02:39;;;;;;;14.70;9.15;;;17.30;99.90;;;;;;5055862;28;20055;-68
2022/05/16 08:05:08;;;;;;;12.73;7.13;;;17.30;99.90;;;;;;5055158;28;20045;-71
2022/05/16 08:10:28;;;;;;;12.55;7.07;;;17.40;99.90;;;;;;5055452;28;20040;-70
2022/05/16 08:10:30;;;;;;;13.70;6.57;;;17.40;99.90;;;;;;5056274;28;20412;-72
2022/05/16 08:12:58;;;;;;;13.25;8.13;;;17.50;99.90;;;;;;5055537;28;20048;-66
2022/05/16 08:15:26;;;;;;;15.07;7.97;;;17.40;99.90;;;;;;5055670;28;20052;-67
2022/05/16 08:17:53;;;;;;;12.55;8.57;;;17.50;99.90;;;;;;5039873;28;20049;-67
2022/05/16 08:20:23;;;;;;;14.20;10.65;;;17.60;99.90;;;;;;5056438;28;20094;-69
2022/05/16 08:22:51;;;;;;;13.80;10.50;;;17.60;99.90;;;;;;5055419;28;20045;-68
2022/05/16 08:25:18;;;;;;;13.40;9.75;;;17.60;99.90;;;;;;5056520;28;20099;-66
2022/05/16 08:27:45;;;;;;;12.95;9.90;;;17.70;99.90;;;;;;5056067;28;20484;-73
2022/05/16 08:30:12;;;;;;;20.38;15.90;;;17.80;99.90;;;;;;5056196;28;20133;-68
2022/05/16 08:32:40;;;;;;;13.15;9.40;;;18.00;99.90;;;;;;5054941;28;20037;-68
2022/05/16 08:35:09;;;;;;;10.75;8.73;;;18.20;99.90;;;;;;5055858;28;20041;-67
2022/05/16 08:40:23;;;;;;;8.80;7.65;;;18.60;99.90;;;;;;5056360;28;20059;-67
2022/05/16 08:42:59;;;;;;;10.27;6.97;;;18.80;99.90;;;;;;5055072;28;20062;-68
2022/05/16 08:45:36;;;;;;;9.75;7.70;;;18.90;99.90;;;;;;5056727;28;20064;-68
2022/05/16 08:48:33;;;;;;;9.20;6.85;;;18.90;99.90;;;;;;5055428;28;20041;-68
2022/05/16 08:51:21;;;;;;;7.95;5.97;;;19.00;99.90;;;;;;5055235;28;20044;-68
2022/05/16 08:54:03;;;;;;;9.70;7.03;;;19.10;99.90;;;;;;5054236;28;20392;-71
2022/05/16 08:56:32;;;;;;;7.65;5.50;;;19.10;99.90;;;;;;5054492;28;20450;-74
2022/05/16 08:59:01;;;;;;;6.97;5.50;;;19.20;99.90;;;;;;5054558;28;20422;-74
2022/05/16 09:01:40;;;;;;;7.60;6.32;;;19.20;99.90;;;;;;5054709;28;20277;-74
2022/05/16 09:04:14;;;;;;;11.68;7.03;;;19.20;99.90;;;;;;5054404;28;20041;-74
2022/05/16 09:06:55;;;;;;;8.95;5.97;;;19.20;99.90;;;;;;5054472;28;20053;-74
2022/05/16 09:09:25;;;;;;;6.05;5.32;;;19.10;99.90;;;;;;5054327;28;20051;-74
2022/05/16 09:12:13;;;;;;;7.85;5.72;;;19.20;99.90;;;;;;5054957;28;20044;-74
2022/05/16 09:15:17;;;;;;;8.13;5.60;;;19.30;99.90;;;;;;5038326;28;20044;-74
2022/05/16 09:18:03;;;;;;;7.60;5.60;;;19.40;99.90;;;;;;5054361;28;20131;-74
2022/05/16 09:20:51;;;;;;;7.40;5.53;;;19.30;99.90;;;;;;5056111;28;20068;-74
2022/05/16 09:23:43;;;;;;;10.32;6.47;;;19.40;99.90;;;;;;5038725;28;20053;-74
2022/05/16 09:26:31;;;;;;;8.50;6.15;;;19.50;99.90;;;;;;5055951;28;20079;-74
2022/05/16 09:29:00;;;;;;;6.32;5.00;;;19.50;99.90;;;;;;5056006;28;20045;-75
2022/05/16 09:31:30;;;;;;;8.52;5.22;;;19.40;99.90;;;;;;5054493;28;20040;-74
2022/05/16 09:33:59;;;;;;;7.20;4.65;;;19.40;99.90;;;;;;5038051;28;20036;-76
2022/05/16 09:36:38;;;;;;;8.00;5.03;;;19.20;99.90;;;;;;5053661;28;20041;-74
2022/05/16 09:39:06;;;;;;;7.47;4.72;;;19.20;99.90;;;;;;5054760;28;20052;-74
2022/05/16 09:41:45;;;;;;;7.67;4.73;;;19.10;99.90;;;;;;5053669;28;20045;-74
2022/05/16 09:44:21;;;;;;;10.02;4.60;;;19.20;99.90;;;;;;5055441;28;20649;-74
2022/05/16 09:46:48;;;;;;;9.18;4.78;;;19.50;99.90;;;;;;5054756;28;20045;-74
2022/05/16 09:49:22;;;;;;;6.10;4.18;;;19.60;99.90;;;;;;5053754;28;20488;-74
2022/05/16 09:51:51;;;;;;;9.57;4.32;;;19.70;99.90;;;;;;5053757;28;20051;-74
2022/05/16 09:54:35;;;;;;;8.25;4.22;;;19.60;99.90;;;;;;5054545;28;20076;-74
2022/05/16 09:57:19;;;;;;;6.75;3.75;;;19.70;99.90;;;;;;5053401;28;20048;-74
2022/05/16 09:59:51;;;;;;;7.18;3.30;;;19.60;99.90;;;;;;5037096;28;20048;-74
2022/05/16 10:02:19;;;;;;;5.57;3.17;;;19.60;99.90;;;;;;5053473;28;20045;-73
2022/05/16 10:04:59;;;;;;;7.32;3.65;;;19.60;99.90;;;;;;5053329;28;20040;-73
2022/05/16 10:07:40;;;;;;;6.30;2.90;;;19.80;99.90;;;;;;5052164;28;20076;-72
2022/05/16 10:10:08;;;;;;;7.60;3.88;;;20.00;99.90;;;;;;5053454;28;20056;-73
2022/05/16 10:12:35;;;;;;;7.75;2.60;;;20.30;99.90;;;;;;5052976;28;20534;-72
2022/05/16 10:15:02;;;;;;;4.57;2.50;;;20.40;99.90;;;;;;5054428;28;20045;-73
2022/05/16 10:17:33;;;;;;;5.20;3.03;;;20.30;99.90;;;;;;5053213;28;20094;-72
2022/05/16 10:20:19;;;;;;;5.07;2.42;;;20.30;99.90;;;;;;5053071;28;20048;-72
2022/05/16 10:22:47;;;;;;;5.28;2.72;;;20.30;99.90;;;;;;5053424;28;20131;-73
2022/05/16 10:25:38;;;;;;;20.38;15.95;;;20.20;99.90;;;;;;5053365;28;20047;-71
2022/05/16 10:28:17;;;;;;;140.77;126.75;;;20.10;99.90;;;;;;5112051;27;20354;-70
2022/05/16 10:33:30;;;;;;;14.70;11.80;;;19.80;99.90;;;;;;5110361;28;20383;-72
2022/05/16 10:36:20;;;;;;;11.05;6.47;;;19.80;99.90;;;;;;5109689;28;20043;-73
2022/05/16 10:39:03;;;;;;;7.90;3.42;;;19.70;99.90;;;;;;5095279;28;20054;-72
2022/05/16 10:41:35;;;;;;;5.70;3.20;;;19.80;99.90;;;;;;5110109;28;20054;-72
2022/05/16 10:44:08;;;;;;;8.63;2.85;;;20.00;99.90;;;;;;5092836;28;20044;-73
2022/05/16 10:46:38;;;;;;;17.23;11.45;;;20.10;99.90;;;;;;5110683;28;20040;-72
2022/05/16 10:49:12;;;;;;;8.82;4.13;;;20.10;99.90;;;;;;5110357;28;20044;-71
2022/05/16 10:51:57;;;;;;;49.25;36.60;;;20.00;99.90;;;;;;5077180;28;20048;-75
2022/05/16 10:54:25;;;;;;;13.18;7.13;;;19.90;99.90;;;;;;5093143;28;20044;-66
2022/05/16 10:57:20;;;;;;;8.45;5.65;;;19.90;99.90;;;;;;5092980;28;20048;-64
2022/05/16 11:00:06;;;;;;;12.23;4.57;;;19.90;99.90;;;;;;5110436;28;20035;-71
2022/05/16 11:02:59;;;;;;;10.60;5.18;;;19.90;99.90;;;;;;5109247;28;20046;-76
2022/05/16 11:05:50;;;;;;;10.07;5.70;;;19.80;99.90;;;;;;5111538;28;20040;-69
2022/05/16 11:08:29;;;;;;;8.20;5.13;;;19.70;99.90;;;;;;5110218;28;20036;-66
2022/05/16 11:11:01;;;;;;;8.40;5.40;;;19.70;99.90;;;;;;5110849;28;20043;-68
2022/05/16 11:13:47;;;;;;;7.65;5.30;;;19.70;99.90;;;;;;5076822;28;20043;-69
2022/05/16 11:16:20;;;;;;;10.20;5.32;;;19.90;99.90;;;;;;5110197;28;20044;-70
2022/05/16 11:19:02;;;;;;;11.23;6.22;;;20.10;99.90;;;;;;5108951;28;20051;-71
2022/05/16 11:21:44;;;;;;;10.50;6.28;;;20.50;99.90;;;;;;5110129;28;20462;-68
2022/05/16 11:24:29;;;;;;;7.85;5.25;;;20.70;99.90;;;;;;5109013;28;20039;-68
2022/05/16 11:27:10;;;;;;;9.18;5.85;;;20.90;99.90;;;;;;5093310;28;20070;-69
2022/05/16 11:29:52;;;;;;;10.73;5.40;;;21.10;99.90;;;;;;5109680;28;20478;-72
2022/05/16 11:32:47;;;;;;;12.55;5.32;;;21.10;99.90;;;;;;5108725;28;20062;-69
2022/05/16 11:35:25;;;;;;;11.90;6.40;;;21.20;99.90;;;;;;5109919;28;20086;-69
2022/05/16 11:37:59;;;;;;;10.15;5.65;;;21.40;99.90;;;;;;5104624;28;20044;-70
2022/05/16 11:40:46;;;;;;;12.02;6.22;;;21.40;99.90;;;;;;5096374;28;20043;-71
2022/05/16 11:43:14;;;;;;;10.93;6.20;;;21.60;99.90;;;;;;5097254;28;20062;-70
2022/05/16 11:46:07;;;;;;;11.00;5.68;;;21.60;99.90;;;;;;5096395;28;20047;-72
2022/05/16 11:49:02;;;;;;;9.15;5.15;;;21.40;99.90;;;;;;5096151;28;20109;-73
2022/05/16 11:51:59;;;;;;;25.20;19.20;;;21.10;99.90;;;;;;5095909;28;20044;-70
2022/05/16 11:54:34;;;;;;;12.20;9.77;;;21.10;99.90;;;;;;5095108;28;20044;-61
2022/05/16 12:02:48;;;;;;;9.32;3.80;;;21.50;99.90;;;;;;5096851;28;20094;-70
2022/05/16 12:05:21;;;;;;;10.15;5.30;;;21.60;99.90;;;;;;5078795;28;20044;-71
2022/05/16 12:07:57;;;;;;;9.55;3.75;;;21.90;99.90;;;;;;5095493;28;20044;-70
2022/05/16 12:10:25;;;;;;;13.23;4.53;;;22.20;99.90;;;;;;5095364;28;20043;-69
2022/05/16 12:13:23;;;;;;;8.10;3.22;;;22.10;99.90;;;;;;5094345;28;20039;-70
2022/05/16 12:16:12;;;;;;;7.83;3.03;;;21.90;99.90;;;;;;5079051;28;20485;-71
2022/05/16 12:18:44;;;;;;;8.73;3.92;;;21.90;99.90;;;;;;5095406;28;20096;-70
2022/05/16 12:21:22;;;;;;;6.95;3.10;;;21.90;99.90;;;;;;5094618;28;20044;-70
2022/05/16 12:23:48;;;;;;;10.98;3.10;;;21.90;99.90;;;;;;5079235;28;20044;-70
2022/05/16 12:26:27;;;;;;;9.20;2.97;;;22.10;99.90;;;;;;5093854;28;20130;-70
2022/05/16 12:29:10;;;;;;;12.13;3.78;;;22.20;99.90;;;;;;5095228;28;20044;-70
2022/05/16 12:31:49;;;;;;;8.00;4.75;;;22.30;99.90;;;;;;5095245;28;20051;-74
2022/05/16 12:34:35;;;;;;;8.75;3.58;;;22.20;99.90;;;;;;5095167;28;20491;-72
2022/05/16 12:37:06;;;;;;;10.10;4.07;;;22.10;99.90;;;;;;5095174;28;20055;-72
2022/05/16 12:39:39;;;;;;;9.85;3.40;;;22.10;99.90;;;;;;5094958;28;20071;-72
2022/05/16 12:42:39;;;;;;;9.85;3.20;;;22.20;99.90;;;;;;5093820;28;20486;-72
2022/05/16 12:45:32;;;;;;;7.30;2.75;;;22.50;99.90;;;;;;5093726;28;20040;-72
2022/05/16 12:48:22;;;;;;;8.35;3.30;;;22.70;99.90;;;;;;5093607;28;20046;-73
2022/05/16 12:51:14;;;;;;;7.30;3.75;;;22.70;99.90;;;;;;5093643;28;20384;-73
2022/05/16 12:54:08;;;;;;;5.50;2.80;;;22.70;99.90;;;;;;5094642;28;20067;-73
2022/05/16 12:56:46;;;;;;;10.90;3.75;;;22.60;99.90;;;;;;5095613;28;20089;-72
2022/05/16 12:59:13;;;;;;;7.40;2.90;;;22.60;99.90;;;;;;5095838;28;20122;-70
2022/05/16 13:01:56;;;;;;;9.38;4.13;;;22.40;99.90;;;;;;5093733;28;20044;-71
2022/05/16 13:04:31;;;;;;;10.02;3.55;;;22.40;99.90;;;;;;5077577;28;20044;-71
2022/05/16 13:07:15;;;;;;;10.73;4.00;;;22.50;99.90;;;;;;5093298;28;20523;-71
2022/05/16 13:09:59;;;;;;;11.52;3.15;;;22.40;99.90;;;;;;5094190;28;20044;-70
2022/05/16 13:12:59;;;;;;;8.18;3.70;;;22.30;99.90;;;;;;5093184;28;20047;-71
2022/05/16 13:15:44;;;;;;;8.32;3.17;;;22.40;99.90;;;;;;5094200;28;20359;-70
2022/05/16 13:18:14;;;;;;;6.47;2.97;;;22.50;99.90;;;;;;5093192;28;20040;-69
2022/05/16 13:20:44;;;;;;;10.80;2.88;;;22.60;99.90;;;;;;5093085;28;20040;-70
2022/05/16 13:23:13;;;;;;;8.40;2.45;;;22.80;99.90;;;;;;5094001;28;20075;-70
2022/05/16 13:31:11;;;;;;;8.88;3.03;;;23.00;99.90;;;;;;5095423;28;20059;-70